createdAt,value
2023-08-08T00:01:15.900Z,0.70
2023-08-08T00:03:46.807Z,0.60
2023-08-08T00:06:17.584Z,0.70
2023-08-08T00:08:48.314Z,0.70
2023-08-08T00:11:19.133Z,1.10
2023-08-08T00:13:49.861Z,0.80
2023-08-08T00:16:21.103Z,0.90
2023-08-08T00:18:54.637Z,0.60
2023-08-08T00:21:25.342Z,0.70
2023-08-08T00:23:56.316Z,0.60
2023-08-08T00:26:27.039Z,0.90
2023-08-08T00:28:57.929Z,0.70
2023-08-08T00:31:28.632Z,0.70
2023-08-08T00:33:59.399Z,1.20
2023-08-08T00:36:30.090Z,0.90
2023-08-08T00:39:00.947Z,0.60
2023-08-08T00:41:31.933Z,0.70
2023-08-08T00:44:02.772Z,0.80
2023-08-08T00:46:33.769Z,0.80
2023-08-08T00:49:04.679Z,0.80
2023-08-08T00:51:36.428Z,0.70
2023-08-08T00:54:07.458Z,0.80
2023-08-08T00:56:38.695Z,0.90
2023-08-08T00:59:13.533Z,0.90
2023-08-08T01:01:44.800Z,0.70
2023-08-08T01:04:15.785Z,0.70
2023-08-08T01:06:56.727Z,0.70
2023-08-08T01:09:32.398Z,0.70
2023-08-08T01:12:04.933Z,0.90
2023-08-08T01:14:36.907Z,0.70
2023-08-08T01:17:08.738Z,0.90
2023-08-08T01:19:40.172Z,1.00
2023-08-08T01:22:16.866Z,1.00
2023-08-08T01:24:47.715Z,1.30
2023-08-08T01:27:19.382Z,0.90
2023-08-08T01:29:50.050Z,0.80
2023-08-08T01:32:20.868Z,0.80
2023-08-08T01:34:51.888Z,0.90
2023-08-08T01:37:30.336Z,1.40
2023-08-08T01:40:02.800Z,0.80
2023-08-08T01:42:34.229Z,0.90
2023-08-08T01:45:06.212Z,0.90
2023-08-08T01:47:37.625Z,0.70
2023-08-08T01:50:10.343Z,1.10
2023-08-08T01:52:41.264Z,1.00
2023-08-08T01:55:13.750Z,0.90
2023-08-08T01:57:44.956Z,0.90
2023-08-08T02:00:16.402Z,0.90
2023-08-08T02:02:47.723Z,1.30
2023-08-08T02:05:18.661Z,0.70
2023-08-08T02:07:49.819Z,1.00
2023-08-08T02:10:20.788Z,1.00
2023-08-08T02:12:51.420Z,0.70
2023-08-08T02:15:22.125Z,0.80
2023-08-08T02:17:53.927Z,0.90
2023-08-08T02:20:24.620Z,1.00
2023-08-08T02:22:55.629Z,0.80
2023-08-08T02:25:26.379Z,0.70
2023-08-08T02:27:57.836Z,1.20
2023-08-08T02:30:28.498Z,0.90
2023-08-08T02:32:59.495Z,0.50
2023-08-08T02:35:30.958Z,0.80
2023-08-08T02:38:01.708Z,1.30
2023-08-08T02:40:33.604Z,0.70
2023-08-08T02:43:04.738Z,0.90
2023-08-08T02:45:35.499Z,1.10
2023-08-08T02:48:07.633Z,0.70
2023-08-08T02:50:38.434Z,0.80
2023-08-08T02:53:09.546Z,1.50
2023-08-08T02:55:41.328Z,0.90
2023-08-08T02:58:12.032Z,0.70
2023-08-08T03:00:42.857Z,1.40
2023-08-08T03:03:14.368Z,0.80
2023-08-08T03:05:46.199Z,0.70
2023-08-08T03:08:17.043Z,0.70
2023-08-08T03:10:47.923Z,0.90
2023-08-08T03:13:21.012Z,1.00
2023-08-08T03:15:52.264Z,0.80
2023-08-08T03:18:24.158Z,0.70
2023-08-08T03:20:55.258Z,0.80
2023-08-08T03:23:25.987Z,0.80
2023-08-08T03:25:57.622Z,1.10
2023-08-08T03:28:28.412Z,0.90
2023-08-08T03:30:59.095Z,1.00
2023-08-08T03:33:30.243Z,1.10
2023-08-08T03:36:01.053Z,0.60
2023-08-08T03:38:32.640Z,1.20
2023-08-08T03:41:04.082Z,0.80
2023-08-08T03:43:35.126Z,0.70
2023-08-08T03:46:05.833Z,0.90
2023-08-08T03:48:36.830Z,0.80
2023-08-08T03:51:08.067Z,1.00
2023-08-08T03:53:38.786Z,1.10
2023-08-08T03:56:09.842Z,0.70
2023-08-08T03:58:41.372Z,1.10
2023-08-08T04:01:12.315Z,1.00
2023-08-08T04:03:43.106Z,0.70
2023-08-08T04:06:14.124Z,1.10
2023-08-08T04:08:44.976Z,0.80
2023-08-08T04:11:15.685Z,1.10
2023-08-08T04:13:46.370Z,0.90
2023-08-08T04:16:17.184Z,1.20
2023-08-08T04:18:48.128Z,1.10
2023-08-08T04:21:18.848Z,2.40
2023-08-08T04:23:49.606Z,1.50
2023-08-08T04:26:20.611Z,1.10
2023-08-08T04:28:51.580Z,0.90
2023-08-08T04:31:25.708Z,1.00
2023-08-08T04:34:02.313Z,1.10
2023-08-08T04:36:33.500Z,1.10
2023-08-08T04:39:04.598Z,1.00
2023-08-08T04:41:35.252Z,1.10
2023-08-08T04:44:06.302Z,1.00
2023-08-08T04:46:37.472Z,0.90
2023-08-08T04:49:08.651Z,0.80
2023-08-08T04:51:40.574Z,0.60
2023-08-08T04:54:11.266Z,0.80
2023-08-08T04:56:42.016Z,1.00
2023-08-08T04:59:13.101Z,1.00
2023-08-08T05:01:43.801Z,1.10
2023-08-08T05:04:14.757Z,1.00
2023-08-08T05:06:45.531Z,0.90
2023-08-08T05:09:17.010Z,1.00
2023-08-08T05:11:48.040Z,0.90
2023-08-08T05:14:18.902Z,1.20
2023-08-08T05:16:49.629Z,0.80
2023-08-08T05:19:20.489Z,0.80
2023-08-08T05:21:52.674Z,0.90
2023-08-08T05:24:23.961Z,1.20
2023-08-08T05:26:54.907Z,0.80
2023-08-08T05:29:25.704Z,1.10
2023-08-08T05:31:56.505Z,0.80
2023-08-08T05:34:27.446Z,1.00
2023-08-08T05:37:14.510Z,1.10
2023-08-08T05:39:48.347Z,0.80
2023-08-08T05:42:19.228Z,0.70
2023-08-08T05:44:50.157Z,1.00
2023-08-08T05:47:20.872Z,0.90
2023-08-08T05:49:51.952Z,0.90
2023-08-08T05:52:23.136Z,0.90
2023-08-08T05:54:53.857Z,0.90
2023-08-08T05:57:24.667Z,1.10
2023-08-08T05:59:55.622Z,0.90
2023-08-08T06:02:26.552Z,0.70
2023-08-08T06:04:57.288Z,0.70
2023-08-08T06:07:28.259Z,0.70
2023-08-08T06:09:59.084Z,0.80
2023-08-08T06:12:30.112Z,1.10
2023-08-08T06:15:00.812Z,1.30
2023-08-08T06:17:32.270Z,0.80
2023-08-08T06:20:03.432Z,0.80
2023-08-08T06:22:34.391Z,0.70
2023-08-08T06:25:05.946Z,0.90
2023-08-08T06:27:36.704Z,0.90
2023-08-08T06:30:10.606Z,1.20
2023-08-08T06:32:41.618Z,0.70
2023-08-08T06:35:13.601Z,0.80
2023-08-08T06:37:44.735Z,0.50
2023-08-08T06:40:16.761Z,0.80
2023-08-08T06:42:47.584Z,0.80
2023-08-08T06:45:18.566Z,0.80
2023-08-08T06:47:50.132Z,0.80
2023-08-08T06:50:21.494Z,1.00
2023-08-08T06:52:52.376Z,0.80
2023-08-08T06:55:23.316Z,0.80
2023-08-08T06:57:54.436Z,0.80
2023-08-08T07:00:25.594Z,0.70
2023-08-08T07:02:56.452Z,0.80
2023-08-08T07:05:27.860Z,0.80
2023-08-08T07:07:58.609Z,0.90
2023-08-08T07:10:30.848Z,0.90
2023-08-08T07:13:01.662Z,0.70
2023-08-08T07:15:32.927Z,0.90
2023-08-08T07:18:03.912Z,0.70
2023-08-08T07:20:34.719Z,0.80
2023-08-08T07:23:06.028Z,0.80
2023-08-08T07:25:36.902Z,0.90
2023-08-08T07:28:08.429Z,0.80
2023-08-08T07:30:39.368Z,0.90
2023-08-08T07:33:10.912Z,1.30
2023-08-08T07:35:41.874Z,0.90
2023-08-08T07:38:12.714Z,0.80
2023-08-08T07:40:43.457Z,0.60
2023-08-08T07:43:14.508Z,0.80
2023-08-08T07:45:45.451Z,0.70
2023-08-08T07:48:16.888Z,0.90
2023-08-08T07:50:47.557Z,0.90
2023-08-08T07:53:18.450Z,0.80
2023-08-08T07:55:49.222Z,0.80
2023-08-08T07:58:20.767Z,0.60
2023-08-08T08:00:53.279Z,0.90
2023-08-08T08:03:24.386Z,0.90
2023-08-08T08:05:55.325Z,0.80
2023-08-08T08:08:26.314Z,0.90
2023-08-08T08:10:57.017Z,0.70
2023-08-08T08:13:27.736Z,0.80
2023-08-08T08:15:58.600Z,0.70
2023-08-08T08:18:30.145Z,1.00
2023-08-08T08:21:01.178Z,1.00
2023-08-08T08:23:33.047Z,1.40
2023-08-08T08:26:04.016Z,1.00
2023-08-08T08:28:34.850Z,1.20
2023-08-08T08:31:10.349Z,1.40
2023-08-08T08:33:41.425Z,1.50
2023-08-08T08:36:14.295Z,1.00
2023-08-08T08:38:45.662Z,1.30
2023-08-08T08:41:19.942Z,1.10
2023-08-08T08:43:52.180Z,1.10
2023-08-08T08:46:24.409Z,1.00
2023-08-08T08:48:57.594Z,1.20
2023-08-08T08:51:28.669Z,1.10
2023-08-08T08:54:01.154Z,1.20
2023-08-08T08:56:33.963Z,1.30
2023-08-08T08:59:06.543Z,1.90
2023-08-08T09:01:37.749Z,2.40
2023-08-08T09:04:10.317Z,2.30
2023-08-08T09:06:41.629Z,2.30
2023-08-08T09:09:16.962Z,2.60
2023-08-08T09:11:50.256Z,2.80
2023-08-08T09:14:22.981Z,3.30
2023-08-08T09:16:55.757Z,2.90
2023-08-08T09:19:27.410Z,2.80
2023-08-08T09:21:58.761Z,2.80
2023-08-08T09:24:29.851Z,3.10
2023-08-08T09:27:02.119Z,3.20
2023-08-08T09:29:33.161Z,3.90
2023-08-08T09:32:07.215Z,3.10
2023-08-08T09:34:38.621Z,3.00
2023-08-08T09:37:11.579Z,3.10
2023-08-08T09:39:42.718Z,2.80
2023-08-08T09:42:13.555Z,3.40
2023-08-08T09:44:46.532Z,2.90
2023-08-08T09:47:18.821Z,2.80
2023-08-08T09:49:50.682Z,3.10
2023-08-08T09:52:22.983Z,2.70
2023-08-08T09:54:54.832Z,2.90
2023-08-08T09:57:27.270Z,2.70
2023-08-08T09:59:59.812Z,2.70
2023-08-08T10:02:32.402Z,3.00
2023-08-08T10:05:03.554Z,2.40
2023-08-08T10:07:34.597Z,2.70
2023-08-08T10:10:05.912Z,2.90
2023-08-08T10:12:38.462Z,2.20
2023-08-08T10:15:12.473Z,3.10
2023-08-08T10:17:44.016Z,2.50
2023-08-08T10:20:18.757Z,2.80
2023-08-08T10:22:52.555Z,2.60
2023-08-08T10:28:24.060Z,2.40
2023-08-08T10:30:59.659Z,2.70
2023-08-08T10:36:08.087Z,2.40
2023-08-08T10:38:47.713Z,2.30
2023-08-08T10:41:21.423Z,2.50
2023-08-08T10:46:33.927Z,2.70
2023-08-08T10:49:07.561Z,2.10
2023-08-08T10:51:45.199Z,1.90
2023-08-08T10:54:18.653Z,2.10
2023-08-08T10:56:54.355Z,2.40
2023-08-08T10:59:27.924Z,1.90
2023-08-08T11:01:58.920Z,1.60
2023-08-08T11:04:31.253Z,1.80
2023-08-08T11:07:02.242Z,2.00
2023-08-08T11:09:33.106Z,2.00
2023-08-08T11:12:04.214Z,1.80
2023-08-08T11:14:35.548Z,1.80
2023-08-08T11:17:07.006Z,1.70
2023-08-08T11:19:44.260Z,2.00
2023-08-08T11:22:15.515Z,1.70
2023-08-08T11:24:46.645Z,1.80
2023-08-08T11:27:42.653Z,1.50
2023-08-08T11:30:11.219Z,1.30
2023-08-08T11:32:42.815Z,1.70
2023-08-08T11:35:14.384Z,1.50
2023-08-08T11:37:45.877Z,1.70
2023-08-08T11:40:18.174Z,1.30
2023-08-08T11:42:51.669Z,1.40
2023-08-08T11:45:23.495Z,1.30
2023-08-08T11:47:55.233Z,1.40
2023-08-08T11:50:28.683Z,1.40
2023-08-08T11:52:59.870Z,1.60
2023-08-08T11:58:06.846Z,1.40
2023-08-08T12:00:38.979Z,1.20
2023-08-08T12:03:10.761Z,1.10
2023-08-08T12:05:41.943Z,1.20
2023-08-08T12:08:13.706Z,1.40
2023-08-08T12:10:54.421Z,1.40
2023-08-08T12:13:27.001Z,1.50
2023-08-08T12:18:35.082Z,1.00
2023-08-08T12:21:05.923Z,1.20
2023-08-08T12:23:38.131Z,1.80
2023-08-08T12:26:10.034Z,1.40
2023-08-08T12:28:40.873Z,0.90
2023-08-08T12:31:11.703Z,1.00
2023-08-08T12:33:43.026Z,1.20
2023-08-08T12:36:15.274Z,1.20
2023-08-08T12:38:47.360Z,1.20
2023-08-08T12:41:18.174Z,1.20
2023-08-08T12:43:48.931Z,1.60
2023-08-08T12:46:19.744Z,1.10
2023-08-08T12:48:50.480Z,1.50
2023-08-08T12:51:21.344Z,1.30
2023-08-08T12:53:52.803Z,1.00
2023-08-08T12:56:23.510Z,1.00
2023-08-08T12:58:54.283Z,1.20
2023-08-08T13:01:25.808Z,1.10
2023-08-08T13:06:34.162Z,1.10
2023-08-08T13:09:07.042Z,1.20
2023-08-08T13:11:39.628Z,1.00
2023-08-08T13:14:10.496Z,0.70
2023-08-08T13:16:41.942Z,1.00
2023-08-08T13:19:13.052Z,1.20
2023-08-08T13:21:43.843Z,0.90
2023-08-08T13:24:15.358Z,1.10
2023-08-08T13:26:47.242Z,1.10
2023-08-08T13:29:18.283Z,1.10
2023-08-08T13:31:49.103Z,0.80
2023-08-08T13:34:20.265Z,1.10
2023-08-08T13:36:51.336Z,1.00
2023-08-08T13:39:22.176Z,1.00
2023-08-08T13:41:52.935Z,0.80
2023-08-08T13:44:23.808Z,0.90
2023-08-08T13:46:54.877Z,0.90
2023-08-08T13:49:27.599Z,1.10
2023-08-08T13:51:58.345Z,0.90
2023-08-08T13:54:29.188Z,1.00
2023-08-08T13:57:00.078Z,1.20
2023-08-08T13:59:31.100Z,0.90
2023-08-08T14:02:02.336Z,0.80
2023-08-08T14:04:33.535Z,1.20
2023-08-08T14:07:04.276Z,1.10
2023-08-08T14:09:35.161Z,1.00
2023-08-08T14:12:06.870Z,1.00
2023-08-08T14:14:37.655Z,0.70
2023-08-08T14:17:08.593Z,0.80
2023-08-08T14:19:39.516Z,1.10
2023-08-08T14:22:11.705Z,1.20
2023-08-08T14:24:43.094Z,1.40
2023-08-08T14:27:14.158Z,1.10
2023-08-08T14:29:45.131Z,1.00
2023-08-08T14:32:16.279Z,1.20
2023-08-08T14:34:47.315Z,1.20
2023-08-08T14:37:18.141Z,1.10
2023-08-08T14:39:49.380Z,0.90
2023-08-08T14:42:20.501Z,1.00
2023-08-08T14:44:51.508Z,1.20
2023-08-08T14:47:22.454Z,1.00
2023-08-08T14:49:53.569Z,0.90
2023-08-08T14:52:27.289Z,1.30
2023-08-08T14:54:58.283Z,1.00
2023-08-08T14:57:29.386Z,1.00
2023-08-08T15:00:02.261Z,1.30
2023-08-08T15:02:33.328Z,1.00
2023-08-08T15:05:04.455Z,1.30
2023-08-08T15:07:35.281Z,0.90
2023-08-08T15:10:07.206Z,1.10
2023-08-08T15:12:38.442Z,0.80
2023-08-08T15:15:12.272Z,0.80
2023-08-08T15:17:43.678Z,1.00
2023-08-08T15:20:15.226Z,0.90
2023-08-08T15:22:46.367Z,1.20
2023-08-08T15:25:17.384Z,1.10
2023-08-08T15:27:50.389Z,0.90
2023-08-08T15:30:21.401Z,1.00
2023-08-08T15:32:52.211Z,0.90
2023-08-08T15:35:24.123Z,1.10
2023-08-08T15:37:55.781Z,1.00
2023-08-08T15:40:28.176Z,0.80
2023-08-08T15:42:59.366Z,1.00
2023-08-08T15:45:30.474Z,1.00
2023-08-08T15:48:01.556Z,0.90
2023-08-08T15:50:32.763Z,0.60
2023-08-08T15:53:03.875Z,0.90
2023-08-08T15:55:35.678Z,0.90
2023-08-08T15:58:07.444Z,0.70
2023-08-08T16:00:38.557Z,0.90
2023-08-08T16:03:09.557Z,1.10
2023-08-08T16:05:41.213Z,0.80
2023-08-08T16:08:12.152Z,1.00
2023-08-08T16:10:43.060Z,0.80
2023-08-08T16:13:14.900Z,1.00
2023-08-08T16:15:46.003Z,0.80
2023-08-08T16:18:16.894Z,0.80
2023-08-08T16:20:47.787Z,1.20
2023-08-08T16:23:18.663Z,0.80
2023-08-08T16:25:50.795Z,0.80
2023-08-08T16:28:21.997Z,0.80
2023-08-08T16:30:53.067Z,0.80
2023-08-08T16:33:24.186Z,0.90
2023-08-08T16:35:55.277Z,1.00
2023-08-08T16:38:26.690Z,0.70
2023-08-08T16:40:57.737Z,1.10
2023-08-08T16:43:32.550Z,1.30
2023-08-08T16:46:03.429Z,1.00
2023-08-08T16:48:34.557Z,0.90
2023-08-08T16:51:05.695Z,1.10
2023-08-08T16:53:37.169Z,0.90
2023-08-08T16:56:08.194Z,0.80
2023-08-08T16:58:40.550Z,1.00
2023-08-08T17:01:13.382Z,0.90
2023-08-08T17:03:44.538Z,0.80
2023-08-08T17:06:15.480Z,0.90
2023-08-08T17:08:47.248Z,0.80
2023-08-08T17:11:18.458Z,1.00
2023-08-08T17:13:50.574Z,0.90
2023-08-08T17:16:21.629Z,0.80
2023-08-08T17:18:53.795Z,0.70
2023-08-08T17:21:24.892Z,0.80
2023-08-08T17:23:56.067Z,1.20
2023-08-08T17:26:27.418Z,0.80
2023-08-08T17:28:58.549Z,1.20
2023-08-08T17:31:29.765Z,1.00
2023-08-08T17:34:00.759Z,0.80
2023-08-08T17:36:31.944Z,0.90
2023-08-08T17:39:03.271Z,1.50
2023-08-08T17:41:34.364Z,1.20
2023-08-08T17:44:06.924Z,0.80
2023-08-08T17:46:38.857Z,0.90
2023-08-08T17:49:10.145Z,1.00
2023-08-08T17:51:41.160Z,0.90
2023-08-08T17:54:12.191Z,0.90
2023-08-08T17:56:43.351Z,1.20
2023-08-08T17:59:14.387Z,1.00
2023-08-08T18:01:45.960Z,0.80
2023-08-08T18:04:16.959Z,1.10
2023-08-08T18:06:48.137Z,1.10
2023-08-08T18:09:19.277Z,1.10
2023-08-08T18:11:50.411Z,0.90
2023-08-08T18:14:21.744Z,1.00
2023-08-08T18:16:52.799Z,1.10
2023-08-08T18:19:24.296Z,1.30
2023-08-08T18:21:55.632Z,1.10
2023-08-08T18:24:27.352Z,0.90
2023-08-08T18:26:58.549Z,1.00
2023-08-08T18:29:29.384Z,0.90
2023-08-08T18:32:02.665Z,0.90
2023-08-08T18:37:03.466Z,0.80
2023-08-08T18:39:34.537Z,1.00
2023-08-08T18:42:05.543Z,0.80
2023-08-08T18:44:36.768Z,0.90
2023-08-08T18:47:08.156Z,1.00
2023-08-08T18:49:39.261Z,0.90
2023-08-08T18:52:10.656Z,1.20
2023-08-08T18:54:41.676Z,0.80
2023-08-08T18:57:12.638Z,1.10
2023-08-08T18:59:43.874Z,2.20
2023-08-08T19:02:14.800Z,1.80
2023-08-08T19:04:45.657Z,1.10
2023-08-08T19:07:16.623Z,1.30
2023-08-08T19:09:47.764Z,1.20
2023-08-08T19:12:18.757Z,1.20
2023-08-08T19:14:49.622Z,1.10
2023-08-08T19:17:20.547Z,1.10
2023-08-08T19:19:51.428Z,0.90
2023-08-08T19:22:22.510Z,1.10
2023-08-08T19:24:54.043Z,1.10
2023-08-08T19:27:25.335Z,1.00
2023-08-08T19:29:56.355Z,0.90
2023-08-08T19:32:27.452Z,1.00
2023-08-08T19:34:58.524Z,1.30
2023-08-08T19:37:31.494Z,0.90
2023-08-08T19:40:02.710Z,0.90
2023-08-08T19:42:33.656Z,1.00
2023-08-08T19:45:06.541Z,0.90
2023-08-08T19:47:38.132Z,0.90
2023-08-08T19:50:10.571Z,1.00
2023-08-08T19:52:42.873Z,0.90
2023-08-08T19:55:13.943Z,1.00
2023-08-08T19:57:44.742Z,0.90
2023-08-08T20:00:17.219Z,0.90
2023-08-08T20:02:48.049Z,1.10
2023-08-08T20:05:19.246Z,0.90
2023-08-08T20:07:50.067Z,1.10
2023-08-08T20:10:21.005Z,1.50
2023-08-08T20:12:52.060Z,1.90
2023-08-08T20:15:23.829Z,0.90
2023-08-08T20:17:54.978Z,1.00
2023-08-08T20:20:26.005Z,0.70
2023-08-08T20:22:56.939Z,1.60
2023-08-08T20:25:27.832Z,1.00
2023-08-08T20:27:58.829Z,1.00
2023-08-08T20:30:29.894Z,0.80
2023-08-08T20:33:01.258Z,1.00
2023-08-08T20:35:32.940Z,1.10
2023-08-08T20:38:04.028Z,1.10
2023-08-08T20:40:34.967Z,0.80
2023-08-08T20:43:06.185Z,1.00
2023-08-08T20:45:36.996Z,1.10
2023-08-08T20:48:08.317Z,0.80
2023-08-08T20:50:39.090Z,0.80
2023-08-08T20:53:14.201Z,0.80
2023-08-08T20:55:45.050Z,1.10
2023-08-08T20:58:15.952Z,0.80
2023-08-08T21:00:46.954Z,0.70
2023-08-08T21:03:17.980Z,0.80
2023-08-08T21:05:49.516Z,1.00
2023-08-08T21:08:20.658Z,0.90
2023-08-08T21:10:51.437Z,0.80
2023-08-08T21:13:22.229Z,0.90
2023-08-08T21:15:53.203Z,0.80
2023-08-08T21:18:24.632Z,1.00
2023-08-08T21:20:56.120Z,0.80
2023-08-08T21:23:27.017Z,0.90
2023-08-08T21:25:58.110Z,0.70
2023-08-08T21:28:30.487Z,0.80
2023-08-08T21:31:01.542Z,0.90
2023-08-08T21:33:32.273Z,0.90
2023-08-08T21:36:03.178Z,0.90
2023-08-08T21:38:34.525Z,0.90
2023-08-08T21:41:05.503Z,0.80
2023-08-08T21:43:37.532Z,1.10
2023-08-08T21:46:08.320Z,0.90
2023-08-08T21:48:39.255Z,0.80
2023-08-08T21:51:11.636Z,1.00
2023-08-08T21:53:42.680Z,0.70
2023-08-08T21:56:13.498Z,1.30
2023-08-08T21:58:44.940Z,1.00
2023-08-08T22:01:15.789Z,0.90
2023-08-08T22:03:47.855Z,1.20
2023-08-08T22:06:18.915Z,1.20
2023-08-08T22:08:50.255Z,0.90
2023-08-08T22:11:21.012Z,0.90
2023-08-08T22:13:51.766Z,0.80
2023-08-08T22:16:22.688Z,0.80
2023-08-08T22:18:53.582Z,0.90
2023-08-08T22:21:24.334Z,0.90
2023-08-08T22:23:55.365Z,0.80
2023-08-08T22:26:26.330Z,0.90
2023-08-08T22:28:57.021Z,1.10
2023-08-08T22:31:27.800Z,0.80
2023-08-08T22:33:59.189Z,0.90
2023-08-08T22:36:32.154Z,1.00
2023-08-08T22:39:03.607Z,1.00
2023-08-08T22:41:34.364Z,1.40
2023-08-08T22:44:05.482Z,0.70
2023-08-08T22:46:38.478Z,0.80
2023-08-08T22:49:10.048Z,0.80
2023-08-08T22:51:40.757Z,0.80
2023-08-08T22:54:11.547Z,0.90
2023-08-08T22:56:42.320Z,0.90
2023-08-08T22:59:13.088Z,0.80
2023-08-08T23:01:44.065Z,1.00
2023-08-08T23:04:14.856Z,0.60
2023-08-08T23:06:45.708Z,0.90
2023-08-08T23:09:16.424Z,0.60
2023-08-08T23:11:47.058Z,0.70
2023-08-08T23:14:17.706Z,0.90
2023-08-08T23:16:48.918Z,0.90
2023-08-08T23:19:19.910Z,0.80
2023-08-08T23:21:50.605Z,0.70
2023-08-08T23:24:21.289Z,0.80
2023-08-08T23:26:52.337Z,0.70
2023-08-08T23:29:23.914Z,1.50
2023-08-08T23:31:54.936Z,0.60
2023-08-08T23:34:26.088Z,0.70
2023-08-08T23:36:57.211Z,1.30
2023-08-08T23:39:28.718Z,0.90
2023-08-08T23:41:59.627Z,1.10
2023-08-08T23:44:30.667Z,0.90
2023-08-08T23:47:01.747Z,0.70
2023-08-08T23:49:32.668Z,1.00
2023-08-08T23:52:03.431Z,0.70
2023-08-08T23:54:34.374Z,1.10
2023-08-08T23:57:05.814Z,0.70
2023-08-08T23:59:36.860Z,0.80
